Time;durP1;ratioP1;P1;durP2;ratioP2;P2;SDS_P1;SDS_P2;PMS_P1;PMS_P2;Temp;Humidity;BMP_temperature;BMP_pressure;BME280_temperature;BME280_humidity;BME280_pressure;Samples;Min_cycle;Max_cycle;Signal;HPM_P1;HPM_P2
2022/08/15 00:00:13;;;;;;;5.75;3.65;;;;;;;21.77;41.02;98747.53;10398452;28;20057;-58
2022/08/15 00:05:29;;;;;;;5.90;3.72;;;;;;;21.93;40.51;98757.91;10397446;28;20045;-58
2022/08/15 00:10:33;;;;;;;6.18;3.40;;;;;;;21.93;40.24;98749.91;10397841;28;20053;-59
2022/08/15 00:15:55;;;;;;;5.95;3.75;;;;;;;21.93;40.06;98760.56;10398040;28;20209;-58
2022/08/15 00:20:58;;;;;;;8.63;3.90;;;;;;;22.01;39.81;98752.44;10397526;28;20509;-58
2022/08/15 00:26:01;;;;;;;6.05;3.55;;;;;;;22.05;39.78;98751.06;10397699;28;20132;-59
2022/08/15 00:31:22;;;;;;;5.25;3.42;;;;;;;22.12;39.53;98745.81;10397173;28;20045;-59
2022/08/15 00:36:42;;;;;;;6.23;3.83;;;;;;;22.27;39.43;98746.53;10396143;28;20585;-59
2022/08/15 00:41:58;;;;;;;4.47;3.60;;;;;;;22.38;39.68;98738.81;10396764;28;20060;-58
2022/08/15 00:47:07;;;;;;;5.28;3.60;;;;;;;22.20;40.85;98740.34;10396944;28;20136;-58
2022/08/15 00:52:12;;;;;;;;;;;;;;;21.71;41.05;98742.97;10395888;28;20413;-58
2022/08/15 00:57:43;;;;;;;8.55;3.90;;;;;;;21.74;41.38;98734.63;10395912;28;19925;-59
2022/08/15 01:03:09;;;;;;;5.85;3.60;;;;;;;21.76;41.15;98725.41;10396319;28;20410;-58
2022/08/15 01:08:16;;;;;;;5.40;3.67;;;;;;;21.80;40.91;98733.84;10395854;28;20501;-58
2022/08/15 01:13:27;;;;;;;6.07;3.75;;;;;;;21.81;41.02;98730.16;10395905;28;20056;-58
2022/08/15 01:18:51;;;;;;;6.13;4.00;;;;;;;21.80;41.04;98739.19;10396280;28;20055;-58
2022/08/15 01:24:13;;;;;;;6.63;3.75;;;;;;;21.71;41.59;98735.81;10395597;28;20489;-59
2022/08/15 01:29:18;;;;;;;6.72;3.65;;;;;;;21.73;41.38;98738.28;10395495;28;20049;-58
2022/08/15 01:34:20;;;;;;;4.88;3.65;;;;;;;21.75;41.05;98737.09;10394929;28;20140;-59
2022/08/15 01:39:40;;;;;;;6.25;3.60;;;;;;;21.75;41.29;98741.59;10395121;28;20915;-59
2022/08/15 01:44:51;;;;;;;4.63;3.53;;;;;;;21.57;41.40;98727.91;10394396;28;20424;-58
2022/08/15 01:50:14;;;;;;;4.13;3.10;;;;;;;21.63;41.00;98727.97;10394589;28;21081;-58
2022/08/15 01:55:57;;;;;;;6.93;3.22;;;;;;;21.82;40.65;98711.34;10394389;28;20060;-58
2022/08/15 02:01:06;;;;;;;7.05;2.83;;;;;;;22.02;40.84;98695.53;10389840;28;20183;-58
2022/08/15 02:06:20;;;;;;;6.13;3.90;;;;;;;21.76;44.38;98682.03;10393719;28;20080;-58
2022/08/15 02:11:35;;;;;;;4.75;3.67;;;;;;;21.25;44.16;98670.69;10393316;28;20053;-58
2022/08/15 02:16:57;;;;;;;4.53;3.10;;;;;;;21.31;43.06;98666.44;10394293;28;20049;-58
2022/08/15 02:21:59;;;;;;;7.10;3.22;;;;;;;21.55;42.67;98682.88;10393032;28;20056;-58
2022/08/15 02:27:02;;;;;;;4.80;3.60;;;;;;;21.43;44.11;98687.06;10393144;28;20133;-59
2022/08/15 02:32:12;;;;;;;7.05;3.40;;;;;;;21.15;45.08;98691.44;10392946;28;20062;-58
2022/08/15 02:37:18;;;;;;;7.27;3.20;;;;;;;21.41;43.34;98690.91;10393214;28;20153;-58
2022/08/15 02:42:24;;;;;;;5.50;2.80;;;;;;;21.48;42.35;98697.09;10392479;28;20320;-58
2022/08/15 02:47:26;;;;;;;5.15;3.35;;;;;;;21.58;42.17;98709.09;10392752;28;20079;-58
2022/08/15 02:52:28;;;;;;;7.68;2.72;;;;;;;21.76;40.87;98716.63;10392818;28;20153;-58
2022/08/15 02:57:33;;;;;;;5.30;2.80;;;;;;;21.95;41.24;98715.13;10392080;28;20141;-58
2022/08/15 03:02:58;;;;;;;4.07;2.60;;;;;;;22.02;40.33;98716.84;10392512;28;20068;-59
2022/08/15 03:08:01;;;;;;;5.82;2.90;;;;;;;22.24;39.84;98712.28;10392340;28;20123;-59
2022/08/15 03:13:15;;;;;;;7.80;2.40;;;;;;;22.36;39.35;98695.56;10392090;28;20135;-59
2022/08/15 03:18:17;;;;;;;6.32;2.60;;;;;;;22.39;39.30;98708.47;10399247;28;20658;-58
2022/08/15 03:23:33;;;;;;;4.63;2.78;;;;;;;22.29;39.53;98704.56;10400669;28;20081;-58
2022/08/15 03:28:43;;;;;;;7.15;3.00;;;;;;;22.11;40.58;98705.03;10399601;28;20053;-58
2022/08/15 03:34:05;;;;;;;7.38;3.20;;;;;;;22.12;41.02;98705.88;10400616;28;20053;-59
2022/08/15 03:39:07;;;;;;;6.40;3.20;;;;;;;22.14;40.69;98715.31;10399507;28;20057;-58
2022/08/15 03:44:11;;;;;;;7.13;3.00;;;;;;;21.94;40.87;98724.97;10398757;28;20061;-59
2022/08/15 03:49:28;;;;;;;6.70;3.60;;;;;;;21.79;41.54;98727.69;10399044;28;20571;-58
2022/08/15 03:54:49;;;;;;;7.78;2.78;;;;;;;21.86;41.13;98727.78;10398997;28;20061;-58
2022/08/15 03:59:52;;;;;;;3.83;2.75;;;;;;;21.92;40.98;98742.97;10398510;28;20085;-58
2022/08/15 04:04:53;;;;;;;8.90;2.60;;;;;;;21.87;40.33;98748.03;10398321;28;20089;-58
2022/08/15 04:09:59;;;;;;;6.72;2.50;;;;;;;21.84;40.23;98743.09;10398247;28;20042;-58
2022/08/15 04:15:05;;;;;;;5.30;2.60;;;;;;;21.97;40.29;98740.53;10398487;28;20080;-59
2022/08/15 04:20:15;;;;;;;8.50;2.60;;;;;;;21.90;40.10;98739.69;10397575;28;20057;-59
2022/08/15 04:25:35;;;;;;;10.40;2.60;;;;;;;22.01;39.92;98739.13;10397658;28;20390;-58
2022/08/15 04:30:45;;;;;;;5.88;2.75;;;;;;;22.04;40.53;98743.28;10397140;28;20064;-58
2022/08/15 04:35:54;;;;;;;4.50;2.88;;;;;;;21.95;40.78;98752.38;10397454;28;20092;-58
2022/08/15 04:40:56;;;;;;;7.15;2.50;;;;;;;21.78;40.75;98751.84;10396966;28;20136;-59
2022/08/15 04:46:19;;;;;;;6.57;2.70;;;;;;;21.80;40.95;98763.13;10397123;28;20656;-58
2022/08/15 04:51:27;;;;;;;4.77;2.50;;;;;;;21.91;40.92;98754.63;10396440;28;20134;-58
2022/08/15 04:56:37;;;;;;;8.02;2.47;;;;;;;22.00;40.88;98755.31;10396649;28;20095;-59
2022/08/15 05:01:51;;;;;;;8.40;2.53;;;;;;;22.09;40.86;98764.84;10396029;28;20145;-58
2022/08/15 05:07:05;;;;;;;6.93;2.60;;;;;;;22.20;40.87;98767.78;10396027;28;20730;-58
2022/08/15 05:12:07;;;;;;;6.40;2.65;;;;;;;22.39;40.63;98761.75;10395475;28;20497;-58
2022/08/15 05:17:13;;;;;;;7.80;2.60;;;;;;;22.46;40.80;98761.81;10394172;28;20512;-59
2022/08/15 05:22:19;;;;;;;6.75;2.70;;;;;;;22.51;40.99;98762.06;10394092;28;20064;-59
2022/08/15 05:27:37;;;;;;;7.88;2.63;;;;;;;22.49;41.10;98756.94;10395282;28;20508;-58
2022/08/15 05:32:45;;;;;;;4.47;2.58;;;;;;;22.46;41.01;98769.81;10395070;28;20145;-59
2022/08/15 05:37:50;;;;;;;7.18;2.53;;;;;;;22.59;41.25;98776.06;10393417;28;20045;-58
2022/08/15 05:43:04;;;;;;;7.72;3.00;;;;;;;22.81;41.53;98768.00;10395148;28;20438;-58
2022/08/15 05:48:13;;;;;;;9.00;2.97;;;;;;;23.02;41.04;98767.91;10394269;28;20092;-59
2022/08/15 05:53:31;;;;;;;9.13;2.70;;;;;;;23.09;41.57;98774.06;10395059;28;20055;-58
2022/08/15 05:58:53;;;;;;;7.53;2.58;;;;;;;23.28;41.67;98770.66;10392558;28;20072;-58
2022/08/15 06:04:21;;;;;;;4.75;2.90;;;;;;;23.39;42.19;98764.75;10393642;28;20519;-59
2022/08/15 06:09:54;;;;;;;12.73;2.90;;;;;;;23.62;42.12;98764.41;10392499;28;20497;-59
2022/08/15 06:15:03;;;;;;;6.85;3.00;;;;;;;23.72;42.05;98760.31;10393044;28;20486;-59
2022/08/15 06:20:08;;;;;;;6.35;2.70;;;;;;;23.78;41.69;98756.81;10393265;28;20044;-58
2022/08/15 06:25:55;;;;;;;7.13;2.97;;;;;;;23.75;42.42;98753.75;10391706;28;20052;-59
2022/08/15 06:31:15;;;;;;;5.22;2.80;;;;;;;23.77;42.61;98760.53;10391726;28;20081;-59
2022/08/15 06:36:27;;;;;;;6.25;2.72;;;;;;;23.58;42.84;98757.81;10393154;28;20426;-59
2022/08/15 06:41:42;;;;;;;6.20;2.80;;;;;;;23.76;42.70;98772.22;10393050;28;20053;-59
2022/08/15 06:46:55;;;;;;;9.45;2.70;;;;;;;23.88;42.44;98767.13;10392692;28;20383;-59
2022/08/15 06:51:58;;;;;;;5.15;2.78;;;;;;;24.09;42.11;98757.09;10397660;28;20497;-59
2022/08/15 06:57:31;;;;;;;4.55;2.47;;;;;;;24.33;41.61;98757.50;10400723;28;20140;-58
2022/08/15 07:02:34;;;;;;;10.20;2.88;;;;;;;24.27;41.70;98756.44;10400801;28;20115;-58
2022/08/15 07:08:01;;;;;;;6.95;2.70;;;;;;;23.96;42.40;98754.38;10400200;28;20516;-59
2022/08/15 07:13:15;;;;;;;5.57;2.70;;;;;;;23.86;42.54;98764.63;10400343;28;20045;-59
2022/08/15 07:18:22;;;;;;;5.28;2.50;;;;;;;23.71;42.80;98772.03;10400770;28;20089;-58
2022/08/15 07:23:33;;;;;;;5.72;2.67;;;;;;;23.59;42.75;98768.31;10400016;28;20045;-59
2022/08/15 07:28:49;;;;;;;8.23;2.65;;;;;;;23.48;42.74;98745.72;10400121;28;20317;-58
2022/08/15 07:33:52;;;;;;;5.70;2.42;;;;;;;23.49;43.06;98754.53;10399572;28;20111;-59
2022/08/15 07:38:57;;;;;;;6.50;2.90;;;;;;;23.50;42.84;98764.19;10382297;28;20497;-59
2022/08/15 07:44:15;;;;;;;7.90;2.60;;;;;;;23.55;42.69;98766.25;10398098;28;20047;-59
2022/08/15 07:49:29;;;;;;;6.85;2.40;;;;;;;23.69;42.59;98770.59;10398863;28;20048;-59
2022/08/15 07:54:48;;;;;;;5.13;2.60;;;;;;;23.65;42.25;98769.34;10398853;28;20092;-59
2022/08/15 08:00:09;;;;;;;5.35;2.40;;;;;;;23.83;41.95;98767.72;10398037;28;20057;-59
2022/08/15 08:05:36;;;;;;;4.85;2.50;;;;;;;23.77;42.24;98776.56;10398131;28;20053;-59
2022/08/15 08:11:08;;;;;;;5.47;2.55;;;;;;;23.80;41.99;98776.13;10397917;28;20080;-59
2022/08/15 08:16:24;;;;;;;5.70;2.40;;;;;;;23.97;41.54;98787.25;10397734;28;20053;-59
2022/08/15 08:21:47;;;;;;;6.18;2.30;;;;;;;24.25;40.84;98786.06;10398190;28;20058;-59
2022/08/15 08:26:50;;;;;;;4.13;2.47;;;;;;;24.51;40.18;98781.72;10397870;28;20061;-59
2022/08/15 08:32:20;;;;;;;4.25;2.25;;;;;;;24.58;39.91;98782.50;10397695;28;20057;-59
2022/08/15 08:37:41;;;;;;;4.32;2.50;;;;;;;24.79;39.24;98793.81;10397388;28;20068;-59
2022/08/15 08:43:05;;;;;;;4.20;2.42;;;;;;;24.91;39.32;98791.31;10396661;28;20054;-59
2022/08/15 08:48:41;;;;;;;5.40;2.60;;;;;;;24.88;39.50;98795.22;10397367;28;20071;-59
2022/08/15 08:53:53;;;;;;;5.03;2.40;;;;;;;24.90;39.92;98808.38;10392466;28;20053;-59
2022/08/15 08:59:08;;;;;;;4.90;2.58;;;;;;;24.84;39.99;98809.22;10396571;28;20049;-59
2022/08/15 09:04:19;;;;;;;5.47;2.35;;;;;;;24.58;40.72;98820.78;10395892;28;20053;-59
2022/08/15 09:09:32;;;;;;;9.38;2.50;;;;;;;24.53;40.63;98830.44;10396496;28;20136;-59
2022/08/15 09:14:40;;;;;;;9.40;2.55;;;;;;;24.52;40.70;98832.28;10394921;28;20444;-58
2022/08/15 09:20:06;;;;;;;6.78;2.53;;;;;;;24.75;40.14;98832.72;10395301;28;20079;-59
2022/08/15 09:25:23;;;;;;;5.60;2.75;;;;;;;25.54;39.08;98835.13;10395270;28;20168;-59
2022/08/15 09:30:32;;;;;;;5.68;2.63;;;;;;;26.45;37.14;98833.72;10394955;28;20493;-59
2022/08/15 09:36:32;;;;;;;6.25;2.40;;;;;;;26.54;36.82;98832.41;10395124;28;20049;-59
2022/08/15 09:42:13;;;;;;;6.90;2.53;;;;;;;26.74;36.13;98837.59;10391520;28;20132;-59
2022/08/15 09:47:55;;;;;;;5.00;2.10;;;;;;;26.48;36.77;98852.06;10394895;28;20045;-59
2022/08/15 09:53:23;;;;;;;3.17;2.00;;;;;;;26.40;36.46;98860.38;10394363;28;20061;-59
2022/08/15 09:58:31;;;;;;;4.90;2.20;;;;;;;26.43;36.27;98866.13;10394037;28;20080;-58
2022/08/15 10:03:45;;;;;;;4.45;2.35;;;;;;;26.54;36.26;98857.38;10394365;28;20140;-59
2022/08/15 10:08:54;;;;;;;7.13;2.25;;;;;;;27.06;35.67;98855.22;10393576;28;20499;-59
2022/08/15 10:14:14;;;;;;;5.45;2.30;;;;;;;27.28;35.20;98851.09;10394004;28;20041;-59
2022/08/15 10:19:39;;;;;;;4.30;2.50;;;;;;;27.85;34.25;98852.44;10393777;28;20331;-59
2022/08/15 10:25:24;;;;;;;5.38;2.40;;;;;;;28.04;34.04;98843.25;10393080;28;20080;-59
2022/08/15 10:30:30;;;;;;;4.70;2.40;;;;;;;28.42;33.60;98848.28;10393109;28;20057;-59
2022/08/15 10:35:53;;;;;;;4.80;2.22;;;;;;;28.13;34.07;98852.66;10378483;28;20132;-59
2022/08/15 10:40:57;;;;;;;5.28;1.92;;;;;;;27.99;34.13;98861.97;10393106;28;20132;-59
2022/08/15 10:46:05;;;;;;;3.70;2.30;;;;;;;28.00;33.90;98861.72;10391598;28;20460;-59
2022/08/15 10:51:44;;;;;;;6.30;2.38;;;;;;;28.00;33.59;98853.66;10392657;28;20081;-59
2022/08/15 10:56:54;;;;;;;5.15;2.17;;;;;;;28.56;33.30;98855.09;10392804;28;20221;-59
2022/08/15 11:02:18;;;;;;;5.80;2.20;;;;;;;27.99;33.68;98861.97;10392298;28;20050;-59
2022/08/15 11:07:50;;;;;;;4.22;2.00;;;;;;;27.50;34.82;98866.50;10392513;28;20045;-59
2022/08/15 11:13:06;;;;;;;5.13;2.10;;;;;;;27.15;35.31;98875.41;10392058;28;20053;-59
2022/08/15 11:18:25;;;;;;;7.28;2.40;;;;;;;26.92;35.96;98870.66;10392533;28;20054;-59
2022/08/15 11:23:39;;;;;;;3.80;2.10;;;;;;;26.96;35.94;98881.75;10391683;28;20049;-59
2022/08/15 11:28:43;;;;;;;3.83;2.10;;;;;;;26.97;35.83;98876.19;10392131;28;20060;-59
2022/08/15 11:33:57;;;;;;;5.55;2.00;;;;;;;27.07;35.38;98886.41;10392725;28;20061;-59
2022/08/15 11:39:13;;;;;;;5.78;1.85;;;;;;;27.49;35.24;98890.91;10398194;28;20048;-59
2022/08/15 11:44:23;;;;;;;3.63;1.90;;;;;;;27.30;35.32;98879.34;10399002;28;20057;-59
2022/08/15 11:49:34;;;;;;;3.67;1.83;;;;;;;27.61;34.91;98878.34;10398591;28;20053;-59
2022/08/15 11:54:36;;;;;;;4.82;1.80;;;;;;;27.76;34.53;98877.97;10398973;28;20050;-59
2022/08/15 11:59:55;;;;;;;3.25;1.75;;;;;;;28.20;33.63;98874.84;10398808;28;20136;-59
2022/08/15 12:05:10;;;;;;;5.50;1.80;;;;;;;27.88;34.04;98871.63;10398641;28;20134;-59
2022/08/15 12:10:35;;;;;;;5.60;1.80;;;;;;;28.04;33.69;98865.59;10398669;28;20292;-59
2022/08/15 12:15:56;;;;;;;4.63;1.90;;;;;;;27.68;34.06;98859.47;10398472;28;20127;-59
2022/08/15 12:21:02;;;;;;;3.38;1.73;;;;;;;27.64;33.85;98864.47;10398190;28;20331;-59
2022/08/15 12:26:09;;;;;;;3.92;1.70;;;;;;;27.59;34.11;98861.63;10397684;28;20115;-59
2022/08/15 12:31:36;;;;;;;5.45;2.10;;;;;;;27.31;34.17;98862.19;10398095;28;20046;-59
2022/08/15 12:36:40;;;;;;;2.78;1.88;;;;;;;27.17;34.20;98863.41;10397490;28;20049;-58
2022/08/15 12:42:02;;;;;;;3.03;1.70;;;;;;;27.24;34.27;98861.44;10397513;28;20536;-59
2022/08/15 12:47:28;;;;;;;3.65;1.80;;;;;;;27.09;34.18;98858.28;10396131;28;20045;-59
2022/08/15 12:52:33;;;;;;;3.97;1.80;;;;;;;27.15;34.24;98854.75;10397082;28;20136;-59
2022/08/15 12:57:35;;;;;;;4.80;1.80;;;;;;;27.49;33.74;98853.28;10395556;28;20088;-59
2022/08/15 13:02:54;;;;;;;3.10;1.63;;;;;;;27.83;33.48;98838.41;10396842;28;20713;-59
2022/08/15 13:07:58;;;;;;;3.72;1.70;;;;;;;27.96;33.80;98846.28;10396247;28;20473;-58
2022/08/15 13:13:20;;;;;;;4.30;1.90;;;;;;;28.21;33.01;98838.88;10396926;28;20228;-59
2022/08/15 13:18:25;;;;;;;4.55;2.03;;;;;;;28.24;32.34;98841.06;10395437;28;20079;-59
2022/08/15 13:23:40;;;;;;;4.72;1.80;;;;;;;27.82;33.41;98853.72;10395446;28;20706;-58
2022/08/15 13:29:02;;;;;;;3.97;1.75;;;;;;;27.63;33.32;98853.97;10395251;28;20684;-59
2022/08/15 13:34:05;;;;;;;3.45;1.77;;;;;;;27.36;33.32;98846.22;10393842;28;20100;-59
2022/08/15 13:39:25;;;;;;;4.45;1.70;;;;;;;27.39;33.82;98851.16;10395262;28;20535;-59
2022/08/15 13:44:34;;;;;;;2.83;1.77;;;;;;;27.30;34.04;98844.44;10394695;28;20549;-59
2022/08/15 13:49:37;;;;;;;4.82;1.80;;;;;;;27.32;33.60;98845.03;10394316;28;20493;-59
2022/08/15 13:54:39;;;;;;;3.67;1.70;;;;;;;27.53;33.51;98835.69;10394112;28;20517;-59
2022/08/15 13:59:50;;;;;;;5.20;1.73;;;;;;;27.80;33.12;98834.31;10392489;28;20351;-59
2022/08/15 14:04:59;;;;;;;2.80;1.70;;;;;;;27.98;32.77;98830.75;10393968;28;20057;-59
2022/08/15 14:10:01;;;;;;;2.17;1.52;;;;;;;28.08;32.49;98815.69;10393717;28;20100;-59
2022/08/15 14:15:22;;;;;;;4.45;1.67;;;;;;;28.51;31.98;98815.41;10393856;28;20053;-59
2022/08/15 14:20:45;;;;;;;3.90;1.75;;;;;;;28.95;31.16;98798.69;10393415;28;20053;-59
2022/08/15 14:25:56;;;;;;;2.75;1.60;;;;;;;29.13;29.88;98786.13;10393690;28;20046;-59
2022/08/15 14:31:17;;;;;;;5.53;1.75;;;;;;;29.15;29.77;98771.38;10393867;28;20055;-59
2022/08/15 14:36:21;;;;;;;3.63;1.80;;;;;;;29.04;29.29;98786.50;10393296;28;20127;-59
2022/08/15 14:41:46;;;;;;;3.25;1.60;;;;;;;28.77;29.94;98777.28;10393165;28;20053;-59
2022/08/15 14:46:52;;;;;;;4.18;1.80;;;;;;;28.74;30.20;98780.44;10393338;28;20059;-59
2022/08/15 14:51:55;;;;;;;5.90;2.05;;;;;;;28.30;30.66;98775.66;10392125;28;20161;-58
2022/08/15 14:57:19;;;;;;;3.35;1.73;;;;;;;27.96;31.38;98781.78;10392780;28;20409;-59
2022/08/15 15:02:26;;;;;;;2.63;1.60;;;;;;;27.92;31.85;98785.97;10392088;28;20489;-59
2022/08/15 15:07:30;;;;;;;3.85;1.70;;;;;;;28.35;31.10;98786.53;10391819;28;20175;-59
2022/08/15 15:13:11;;;;;;;2.80;1.67;;;;;;;28.83;30.15;98780.88;10396072;28;20208;-59
2022/08/15 15:18:16;;;;;;;2.72;1.75;;;;;;;28.86;29.71;98785.84;10400753;28;20095;-59
2022/08/15 15:23:40;;;;;;;2.63;1.73;;;;;;;28.62;29.66;98787.72;10399999;28;20513;-58
2022/08/15 15:28:44;;;;;;;3.22;1.70;;;;;;;28.29;29.86;98792.84;10398490;28;20144;-59
2022/08/15 15:33:48;;;;;;;3.53;2.10;;;;;;;27.82;30.94;98793.78;10399992;28;20065;-59
2022/08/15 15:38:54;;;;;;;3.03;1.90;;;;;;;27.52;31.61;98794.56;10399810;28;20420;-59
2022/08/15 15:44:02;;;;;;;4.43;2.13;;;;;;;27.61;31.74;98796.94;10399568;28;20386;-59
2022/08/15 15:49:08;;;;;;;3.97;2.00;;;;;;;28.03;31.44;98782.50;10399393;28;20045;-59
2022/08/15 15:54:10;;;;;;;4.72;2.00;;;;;;;28.34;30.91;98776.81;10397232;28;20085;-59
2022/08/15 15:59:32;;;;;;;5.07;2.10;;;;;;;28.32;30.96;98781.59;10398492;28;20049;-59
2022/08/15 16:04:53;;;;;;;4.63;2.05;;;;;;;28.15;31.20;98778.78;10399096;28;20431;-59
2022/08/15 16:09:58;;;;;;;4.55;2.25;;;;;;;27.94;31.55;98776.63;10397427;28;20519;-59
2022/08/15 16:15:06;;;;;;;3.88;2.10;;;;;;;27.92;31.64;98775.22;10398830;28;20057;-59
2022/08/15 16:20:20;;;;;;;4.03;2.30;;;;;;;27.98;31.58;98768.91;10398330;28;20091;-59
2022/08/15 16:25:59;;;;;;;4.38;2.20;;;;;;;27.94;31.43;98763.19;10397329;28;20413;-58
2022/08/15 16:31:08;;;;;;;4.63;2.40;;;;;;;27.77;31.65;98764.91;10397735;28;20131;-59
2022/08/15 16:36:36;;;;;;;6.40;2.45;;;;;;;27.51;31.38;98751.84;10397281;28;20057;-59
2022/08/15 16:41:51;;;;;;;4.28;2.20;;;;;;;27.50;31.65;98751.00;10397307;28;20454;-59
2022/08/15 16:47:31;;;;;;;4.07;2.20;;;;;;;27.47;31.83;98751.47;10396953;28;20053;-59
2022/08/15 16:52:54;;;;;;;3.27;2.10;;;;;;;27.41;30.94;98744.34;10397414;28;20143;-59
2022/08/15 16:58:04;;;;;;;4.30;2.10;;;;;;;27.28;30.89;98744.50;10396721;28;20061;-59
2022/08/15 17:03:50;;;;;;;4.60;2.20;;;;;;;27.23;31.02;98763.16;10396525;28;20041;-59
2022/08/15 17:09:21;;;;;;;4.32;2.20;;;;;;;27.19;31.27;98762.00;10396621;28;20053;-59
2022/08/15 17:15:11;;;;;;;4.53;2.20;;;;;;;27.26;30.93;98768.06;10396257;28;20190;-59
2022/08/15 17:20:18;;;;;;;5.00;2.30;;;;;;;27.25;31.29;98781.72;10396039;28;20140;-59
2022/08/15 17:25:37;;;;;;;4.35;2.35;;;;;;;27.12;31.58;98789.91;10394399;28;20464;-58
2022/08/15 17:31:01;;;;;;;3.85;2.20;;;;;;;26.87;31.89;98798.06;10395540;28;20045;-59
2022/08/15 17:36:06;;;;;;;5.75;2.42;;;;;;;26.89;31.95;98811.25;10394567;28;20464;-59
2022/08/15 17:41:18;;;;;;;6.03;2.33;;;;;;;26.75;31.66;98823.97;10394890;28;20045;-58
2022/08/15 17:46:29;;;;;;;5.10;2.47;;;;;;;26.51;31.64;98832.84;10394803;28;20168;-58
2022/08/15 17:51:37;;;;;;;4.43;2.30;;;;;;;26.34;32.00;98831.75;10394397;28;20053;-59
2022/08/15 17:56:47;;;;;;;3.78;2.28;;;;;;;26.13;32.08;98821.41;10394135;28;20509;-58
2022/08/15 18:01:50;;;;;;;5.57;2.33;;;;;;;25.97;32.41;98828.13;10393790;28;20045;-59
2022/08/15 18:06:57;;;;;;;5.05;2.53;;;;;;;25.91;32.59;98828.97;10394028;28;20481;-59
2022/08/15 18:11:59;;;;;;;4.20;2.30;;;;;;;25.66;33.05;98836.94;10393600;28;20461;-59
2022/08/15 18:17:19;;;;;;;5.35;2.50;;;;;;;25.54;33.45;98838.66;10394059;28;20049;-59
2022/08/15 18:22:22;;;;;;;7.33;2.67;;;;;;;25.32;33.75;98839.97;10393821;28;20136;-59
2022/08/15 18:27:34;;;;;;;5.65;2.50;;;;;;;25.20;34.40;98846.16;10393235;28;20479;-59
2022/08/15 18:32:46;;;;;;;4.93;2.40;;;;;;;25.06;34.76;98853.44;10393071;28;20128;-59
2022/08/15 18:38:12;;;;;;;7.95;2.40;;;;;;;24.89;35.11;98858.41;10393143;28;20077;-59
2022/08/15 18:43:17;;;;;;;6.95;2.90;;;;;;;24.79;35.43;98865.19;10392675;28;20061;-58
2022/08/15 18:48:24;;;;;;;5.07;2.35;;;;;;;24.72;35.67;98875.06;10392563;28;21122;-59
2022/08/15 18:54:03;;;;;;;5.70;2.50;;;;;;;24.48;36.05;98884.53;10392400;28;20068;-59
2022/08/15 18:59:17;;;;;;;5.97;2.40;;;;;;;24.21;36.89;98894.38;10392788;28;20128;-59
2022/08/15 19:04:30;;;;;;;5.88;2.85;;;;;;;24.05;37.16;98905.41;10392634;28;20148;-59
2022/08/15 19:09:59;;;;;;;5.45;2.70;;;;;;;23.91;37.61;98917.09;10392672;28;20390;-58
2022/08/15 19:15:07;;;;;;;5.90;2.55;;;;;;;23.82;37.73;98922.81;10392916;28;20077;-58
2022/08/15 19:20:19;;;;;;;6.15;2.70;;;;;;;23.64;38.12;98935.84;10391746;28;20077;-59
2022/08/15 19:25:42;;;;;;;4.60;2.53;;;;;;;23.53;38.65;98937.28;10392206;28;20501;-59
2022/08/15 19:30:54;;;;;;;7.65;2.50;;;;;;;23.39;38.82;98946.19;10392077;28;20053;-58
2022/08/15 19:36:29;;;;;;;5.07;2.40;;;;;;;23.18;39.21;98948.94;10392063;28;20060;-58
2022/08/15 19:41:39;;;;;;;5.05;2.63;;;;;;;23.31;39.26;98951.66;10391716;28;20054;-58
2022/08/15 19:46:41;;;;;;;5.20;2.50;;;;;;;23.38;39.09;98952.53;10391772;28;20088;-58
2022/08/15 19:51:54;;;;;;;4.78;2.50;;;;;;;23.35;39.32;98958.28;10391405;28;20344;-58
2022/08/15 19:57:22;;;;;;;5.45;2.65;;;;;;;23.27;39.62;98950.41;10392389;28;20061;-59
2022/08/15 20:02:57;;;;;;;5.75;2.70;;;;;;;23.13;39.74;98959.34;10398119;28;20508;-59
2022/08/15 20:08:18;;;;;;;7.40;2.78;;;;;;;23.13;40.07;98964.69;10398869;28;20096;-59
2022/08/15 20:14:21;;;;;;;5.65;3.10;;;;;;;22.96;41.12;98955.34;10398051;28;20041;-59
2022/08/15 20:20:02;;;;;;;4.68;2.40;;;;;;;23.12;40.90;98957.72;10398559;28;20050;-59
2022/08/15 20:25:11;;;;;;;7.75;2.78;;;;;;;23.27;40.58;98951.25;10398135;28;20049;-59
2022/08/15 20:30:26;;;;;;;7.28;2.90;;;;;;;23.30;40.31;98964.22;10398067;28;20061;-59
2022/08/15 20:35:42;;;;;;;9.85;2.90;;;;;;;23.35;40.12;98958.28;10397697;28;20061;-59
2022/08/15 20:41:09;;;;;;;8.10;2.83;;;;;;;23.33;40.11;98963.00;10397484;28;20049;-59
2022/08/15 20:46:23;;;;;;;6.78;2.80;;;;;;;23.22;40.58;98964.38;10397317;28;20054;-59
2022/08/15 20:51:35;;;;;;;5.40;2.60;;;;;;;23.11;40.68;98956.88;10396748;28;20103;-59
2022/08/15 20:56:58;;;;;;;6.55;2.75;;;;;;;22.99;41.14;98971.78;10396743;28;20339;-59
2022/08/15 21:02:24;;;;;;;6.53;2.83;;;;;;;22.65;41.89;98971.69;10396714;28;20508;-59
2022/08/15 21:08:25;;;;;;;5.55;3.08;;;;;;;22.40;42.58;98984.56;10393061;28;20485;-59
2022/08/15 21:13:55;;;;;;;5.20;2.60;;;;;;;22.40;42.46;98984.56;10376146;28;20068;-59
2022/08/15 21:19:23;;;;;;;5.35;2.50;;;;;;;22.18;42.97;98987.38;10396292;28;20049;-59
2022/08/15 21:24:29;;;;;;;7.50;2.70;;;;;;;22.01;43.54;98976.09;10395582;28;20566;-59
2022/08/15 21:29:31;;;;;;;6.10;2.90;;;;;;;21.96;43.86;98975.03;10395837;28;20140;-59
2022/08/15 21:34:38;;;;;;;8.55;3.00;;;;;;;21.84;44.14;98978.16;10395166;28;20139;-59
2022/08/15 21:39:50;;;;;;;4.90;2.47;;;;;;;21.74;44.49;98988.25;10395511;28;20607;-59
2022/08/15 21:45:12;;;;;;;6.25;2.75;;;;;;;21.59;44.72;98997.28;10394924;28;20076;-59
2022/08/15 21:50:38;;;;;;;4.57;2.88;;;;;;;21.52;44.95;99007.00;10395118;28;20085;-59
2022/08/15 21:55:49;;;;;;;7.47;3.03;;;;;;;21.51;45.06;99016.00;10394255;28;20245;-60
2022/08/15 22:01:26;;;;;;;6.40;3.08;;;;;;;21.32;45.57;99028.00;10394606;28;20056;-59
2022/08/15 22:06:31;;;;;;;4.18;2.63;;;;;;;21.28;45.65;99036.47;10386122;28;20531;-59
2022/08/15 22:11:53;;;;;;;6.60;3.15;;;;;;;21.07;46.29;99035.34;10393933;28;20099;-59
2022/08/15 22:16:59;;;;;;;6.22;2.92;;;;;;;21.04;46.17;99029.56;10394022;28;20053;-59
2022/08/15 22:22:03;;;;;;;4.25;2.85;;;;;;;21.03;46.33;99036.69;10393456;28;20049;-59
2022/08/15 22:27:08;;;;;;;11.55;3.10;;;;;;;20.99;46.67;99051.38;10393337;28;20398;-59
2022/08/15 22:32:14;;;;;;;8.68;2.90;;;;;;;20.83;46.88;99058.63;10393259;28;20084;-59
2022/08/15 22:37:33;;;;;;;6.15;2.90;;;;;;;20.73;47.22;99064.19;10393028;28;20053;-59
2022/08/15 22:42:55;;;;;;;5.93;3.30;;;;;;;20.60;47.43;99074.56;10393243;28;20045;-59
2022/08/15 22:47:58;;;;;;;7.22;3.10;;;;;;;20.56;47.37;99072.44;10393329;28;20128;-59
2022/08/15 22:53:21;;;;;;;7.15;3.20;;;;;;;20.31;47.92;99076.22;10392765;28;20057;-59
2022/08/15 22:58:26;;;;;;;5.70;3.22;;;;;;;20.24;48.22;99081.38;10392569;28;20160;-59
2022/08/15 23:03:38;;;;;;;5.65;3.30;;;;;;;20.26;48.36;99071.41;10392298;28;20056;-59
2022/08/15 23:08:52;;;;;;;6.53;3.03;;;;;;;20.22;48.63;99081.56;10391160;28;20057;-58
2022/08/15 23:14:03;;;;;;;7.47;3.42;;;;;;;20.17;48.85;99083.91;10392816;28;20764;-59
2022/08/15 23:19:14;;;;;;;7.22;4.07;;;;;;;19.96;49.93;99088.97;10392777;28;20136;-59
2022/08/15 23:24:20;;;;;;;6.03;3.70;;;;;;;19.54;50.47;99076.97;10391662;28;20516;-59
2022/08/15 23:29:42;;;;;;;6.90;3.50;;;;;;;19.49;50.88;99085.41;10392242;28;20053;-59
2022/08/15 23:34:48;;;;;;;5.97;3.40;;;;;;;19.58;50.09;99070.31;10397758;28;20358;-59
2022/08/15 23:40:01;;;;;;;6.82;3.38;;;;;;;19.61;50.44;99077.94;10399263;28;20600;-59
2022/08/15 23:45:04;;;;;;;7.15;3.85;;;;;;;19.48;50.60;99079.28;10399383;28;20877;-59
2022/08/15 23:50:15;;;;;;;6.63;3.67;;;;;;;19.22;51.03;99076.00;10399402;28;20076;-59
2022/08/15 23:55:24;;;;;;;6.18;3.33;;;;;;;19.26;51.30;99081.78;10398735;28;20057;-59
